sensor_id;sensor_type;location;lat;lon;timestamp;pressure;altitude;pressure_sealevel;temperature;humidity
64023;BME280;50264;52.088;5.296;2023-04-27T00:03:09;102117.0;;;1.0;89.22
64023;BME280;50264;52.088;5.296;2023-04-27T00:04:45;102124.0;;;0.89;89.14
64023;BME280;50264;52.088;5.296;2023-04-27T00:06:22;102120.0;;;0.86;89.5
64023;BME280;50264;52.088;5.296;2023-04-27T00:07:58;102120.0;;;0.85;89.88
64023;BME280;50264;52.088;5.296;2023-04-27T00:11:10;102124.0;;;0.82;89.82
64023;BME280;50264;52.088;5.296;2023-04-27T00:12:46;102123.0;;;0.78;90.48
64023;BME280;50264;52.088;5.296;2023-04-27T00:14:23;102122.0;;;0.81;90.28
64023;BME280;50264;52.088;5.296;2023-04-27T00:17:36;102122.0;;;0.83;89.78
64023;BME280;50264;52.088;5.296;2023-04-27T00:19:12;102124.0;;;0.77;89.97
64023;BME280;50264;52.088;5.296;2023-04-27T00:20:48;102125.0;;;0.69;90.13
64023;BME280;50264;52.088;5.296;2023-04-27T00:24:00;102131.0;;;0.63;90.03
64023;BME280;50264;52.088;5.296;2023-04-27T00:25:37;102126.0;;;0.66;90.22
64023;BME280;50264;52.088;5.296;2023-04-27T00:27:13;102123.0;;;0.69;90.59
64023;BME280;50264;52.088;5.296;2023-04-27T00:28:50;102120.0;;;0.78;90.14
64023;BME280;50264;52.088;5.296;2023-04-27T00:32:02;102120.0;;;0.67;89.79
64023;BME280;50264;52.088;5.296;2023-04-27T00:33:38;102117.0;;;0.63;90.41
64023;BME280;50264;52.088;5.296;2023-04-27T00:35:14;102116.0;;;0.74;89.97
64023;BME280;50264;52.088;5.296;2023-04-27T00:38:27;102114.0;;;0.8;89.81
64023;BME280;50264;52.088;5.296;2023-04-27T00:40:04;102114.0;;;0.83;89.51
64023;BME280;50264;52.088;5.296;2023-04-27T00:41:41;102121.0;;;0.87;88.87
64023;BME280;50264;52.088;5.296;2023-04-27T00:44:53;102119.0;;;0.7;89.01
64023;BME280;50264;52.088;5.296;2023-04-27T00:46:32;102120.0;;;0.72;89.0
64023;BME280;50264;52.088;5.296;2023-04-27T00:48:09;102121.0;;;0.64;89.37
64023;BME280;50264;52.088;5.296;2023-04-27T00:49:46;102119.0;;;0.67;89.72
64023;BME280;50264;52.088;5.296;2023-04-27T00:52:59;102122.0;;;0.78;89.89
64023;BME280;50264;52.088;5.296;2023-04-27T00:54:37;102121.0;;;0.76;89.34
64023;BME280;50264;52.088;5.296;2023-04-27T00:56:13;102116.0;;;0.9;89.03
64023;BME280;50264;52.088;5.296;2023-04-27T00:59:25;102115.0;;;1.02;88.66
64023;BME280;50264;52.088;5.296;2023-04-27T01:01:01;102112.0;;;1.12;88.23
64023;BME280;50264;52.088;5.296;2023-04-27T01:02:38;102105.0;;;1.01;87.93
64023;BME280;50264;52.088;5.296;2023-04-27T01:05:51;102105.0;;;1.12;87.47
64023;BME280;50264;52.088;5.296;2023-04-27T01:07:28;102100.0;;;1.13;87.28
64023;BME280;50264;52.088;5.296;2023-04-27T01:09:04;102101.0;;;1.13;87.28
64023;BME280;50264;52.088;5.296;2023-04-27T01:10:40;102100.0;;;1.17;87.05
64023;BME280;50264;52.088;5.296;2023-04-27T01:13:52;102100.0;;;1.16;86.89
64023;BME280;50264;52.088;5.296;2023-04-27T01:15:30;102098.0;;;1.14;86.35
64023;BME280;50264;52.088;5.296;2023-04-27T01:17:06;102099.0;;;1.0;86.72
64023;BME280;50264;52.088;5.296;2023-04-27T01:20:18;102101.0;;;0.87;87.24
64023;BME280;50264;52.088;5.296;2023-04-27T01:21:54;102103.0;;;0.88;88.02
64023;BME280;50264;52.088;5.296;2023-04-27T01:23:31;102106.0;;;0.93;88.09
64023;BME280;50264;52.088;5.296;2023-04-27T01:26:43;102109.0;;;0.85;88.34
64023;BME280;50264;52.088;5.296;2023-04-27T01:28:19;102111.0;;;0.91;87.84
64023;BME280;50264;52.088;5.296;2023-04-27T01:29:55;102115.0;;;0.82;88.3
64023;BME280;50264;52.088;5.296;2023-04-27T01:33:08;102120.0;;;0.79;88.22
64023;BME280;50264;52.088;5.296;2023-04-27T01:34:44;102111.0;;;0.69;88.26
64023;BME280;50264;52.088;5.296;2023-04-27T01:36:21;102100.0;;;1.02;88.23
64023;BME280;50264;52.088;5.296;2023-04-27T01:37:57;102101.0;;;1.07;87.58
64023;BME280;50264;52.088;5.296;2023-04-27T01:41:09;102097.0;;;0.99;87.25
64023;BME280;50264;52.088;5.296;2023-04-27T01:42:45;102092.0;;;1.02;87.57
64023;BME280;50264;52.088;5.296;2023-04-27T01:44:21;102097.0;;;1.05;87.44
64023;BME280;50264;52.088;5.296;2023-04-27T01:47:40;102091.0;;;1.16;87.11
64023;BME280;50264;52.088;5.296;2023-04-27T01:49:16;102086.0;;;1.21;86.83
64023;BME280;50264;52.088;5.296;2023-04-27T01:50:53;102083.0;;;1.2;86.37
64023;BME280;50264;52.088;5.296;2023-04-27T01:54:05;102088.0;;;1.11;86.64
64023;BME280;50264;52.088;5.296;2023-04-27T01:55:42;102088.0;;;0.91;86.94
64023;BME280;50264;52.088;5.296;2023-04-27T01:57:18;102088.0;;;0.77;87.57
64023;BME280;50264;52.088;5.296;2023-04-27T01:58:54;102087.0;;;0.67;87.87
64023;BME280;50264;52.088;5.296;2023-04-27T02:02:06;102090.0;;;0.8;88.25
64023;BME280;50264;52.088;5.296;2023-04-27T02:03:43;102092.0;;;0.66;88.58
64023;BME280;50264;52.088;5.296;2023-04-27T02:05:19;102092.0;;;0.65;88.74
64023;BME280;50264;52.088;5.296;2023-04-27T02:08:31;102090.0;;;0.68;88.39
64023;BME280;50264;52.088;5.296;2023-04-27T02:10:08;102086.0;;;0.81;88.42
64023;BME280;50264;52.088;5.296;2023-04-27T02:11:44;102095.0;;;0.68;88.56
64023;BME280;50264;52.088;5.296;2023-04-27T02:14:56;102095.0;;;0.58;88.38
64023;BME280;50264;52.088;5.296;2023-04-27T02:16:33;102095.0;;;0.59;88.76
64023;BME280;50264;52.088;5.296;2023-04-27T02:18:09;102094.0;;;0.53;88.81
64023;BME280;50264;52.088;5.296;2023-04-27T02:19:46;102093.0;;;0.76;89.0
64023;BME280;50264;52.088;5.296;2023-04-27T02:22:58;102090.0;;;0.86;88.36
64023;BME280;50264;52.088;5.296;2023-04-27T02:24:34;102092.0;;;0.9;88.12
64023;BME280;50264;52.088;5.296;2023-04-27T02:26:15;102092.0;;;0.92;87.68
64023;BME280;50264;52.088;5.296;2023-04-27T02:29:29;102093.0;;;0.73;87.94
64023;BME280;50264;52.088;5.296;2023-04-27T02:31:05;102089.0;;;0.68;88.81
64023;BME280;50264;52.088;5.296;2023-04-27T02:32:42;102086.0;;;0.6;88.77
64023;BME280;50264;52.088;5.296;2023-04-27T02:35:54;102090.0;;;0.6;88.76
64023;BME280;50264;52.088;5.296;2023-04-27T02:37:30;102087.0;;;0.65;88.38
64023;BME280;50264;52.088;5.296;2023-04-27T02:39:06;102086.0;;;0.67;88.38
64023;BME280;50264;52.088;5.296;2023-04-27T02:40:42;102083.0;;;0.73;88.63
64023;BME280;50264;52.088;5.296;2023-04-27T02:43:54;102076.0;;;0.62;88.31
64023;BME280;50264;52.088;5.296;2023-04-27T02:45:30;102073.0;;;0.57;88.77
64023;BME280;50264;52.088;5.296;2023-04-27T02:47:07;102069.0;;;0.5;89.21
64023;BME280;50264;52.088;5.296;2023-04-27T02:50:19;102071.0;;;0.48;89.5
64023;BME280;50264;52.088;5.296;2023-04-27T02:51:55;102067.0;;;0.5;89.52
64023;BME280;50264;52.088;5.296;2023-04-27T02:53:31;102069.0;;;0.58;89.4
64023;BME280;50264;52.088;5.296;2023-04-27T02:56:44;102060.0;;;0.66;88.86
64023;BME280;50264;52.088;5.296;2023-04-27T02:58:20;102066.0;;;0.66;88.23
64023;BME280;50264;52.088;5.296;2023-04-27T02:59:57;102066.0;;;0.57;88.74
64023;BME280;50264;52.088;5.296;2023-04-27T03:01:33;102073.0;;;0.46;89.11
64023;BME280;50264;52.088;5.296;2023-04-27T03:04:45;102072.0;;;0.4;89.39
64023;BME280;50264;52.088;5.296;2023-04-27T03:06:21;102076.0;;;0.52;89.87
64023;BME280;50264;52.088;5.296;2023-04-27T03:07:57;102075.0;;;0.48;89.99
64023;BME280;50264;52.088;5.296;2023-04-27T03:11:09;102076.0;;;0.56;90.15
64023;BME280;50264;52.088;5.296;2023-04-27T03:12:46;102075.0;;;0.56;89.21
64023;BME280;50264;52.088;5.296;2023-04-27T03:14:22;102076.0;;;0.59;89.39
64023;BME280;50264;52.088;5.296;2023-04-27T03:17:34;102081.0;;;0.63;89.15
64023;BME280;50264;52.088;5.296;2023-04-27T03:19:10;102084.0;;;0.65;89.19
64023;BME280;50264;52.088;5.296;2023-04-27T03:20:46;102082.0;;;0.6;89.27
64023;BME280;50264;52.088;5.296;2023-04-27T03:23:59;102082.0;;;0.69;89.45
64023;BME280;50264;52.088;5.296;2023-04-27T03:25:35;102086.0;;;0.59;88.88
64023;BME280;50264;52.088;5.296;2023-04-27T03:27:11;102081.0;;;0.73;88.89
64023;BME280;50264;52.088;5.296;2023-04-27T03:28:47;102085.0;;;0.77;88.85
64023;BME280;50264;52.088;5.296;2023-04-27T03:31:59;102085.0;;;0.91;88.09
64023;BME280;50264;52.088;5.296;2023-04-27T03:33:35;102080.0;;;0.92;88.3
64023;BME280;50264;52.088;5.296;2023-04-27T03:35:12;102080.0;;;0.88;87.9
64023;BME280;50264;52.088;5.296;2023-04-27T03:38:26;102080.0;;;0.95;88.07
64023;BME280;50264;52.088;5.296;2023-04-27T03:40:03;102076.0;;;0.8;88.07
64023;BME280;50264;52.088;5.296;2023-04-27T03:41:40;102081.0;;;0.81;88.61
64023;BME280;50264;52.088;5.296;2023-04-27T03:44:52;102081.0;;;0.86;88.35
64023;BME280;50264;52.088;5.296;2023-04-27T03:46:28;102080.0;;;0.87;88.11
64023;BME280;50264;52.088;5.296;2023-04-27T03:48:05;102076.0;;;0.76;88.89
64023;BME280;50264;52.088;5.296;2023-04-27T03:49:40;102074.0;;;0.74;89.4
64023;BME280;50264;52.088;5.296;2023-04-27T03:52:52;102081.0;;;0.74;89.25
64023;BME280;50264;52.088;5.296;2023-04-27T03:54:30;102086.0;;;0.68;89.15
64023;BME280;50264;52.088;5.296;2023-04-27T03:56:06;102085.0;;;0.73;89.56
64023;BME280;50264;52.088;5.296;2023-04-27T03:59:18;102083.0;;;0.68;89.51
64023;BME280;50264;52.088;5.296;2023-04-27T04:00:54;102082.0;;;0.56;89.57
64023;BME280;50264;52.088;5.296;2023-04-27T04:02:30;102084.0;;;0.56;90.15
64023;BME280;50264;52.088;5.296;2023-04-27T04:05:42;102084.0;;;0.59;89.92
64023;BME280;50264;52.088;5.296;2023-04-27T04:07:18;102089.0;;;0.7;89.57
64023;BME280;50264;52.088;5.296;2023-04-27T04:08:55;102092.0;;;0.67;89.41
64023;BME280;50264;52.088;5.296;2023-04-27T04:12:07;102091.0;;;0.74;89.22
64023;BME280;50264;52.088;5.296;2023-04-27T04:13:43;102089.0;;;0.72;89.3
64023;BME280;50264;52.088;5.296;2023-04-27T04:15:19;102085.0;;;0.62;89.42
64023;BME280;50264;52.088;5.296;2023-04-27T04:16:55;102089.0;;;0.61;89.7
64023;BME280;50264;52.088;5.296;2023-04-27T04:20:08;102087.0;;;0.49;90.12
64023;BME280;50264;52.088;5.296;2023-04-27T04:21:45;102093.0;;;0.5;90.24
64023;BME280;50264;52.088;5.296;2023-04-27T04:23:21;102095.0;;;0.4;90.61
64023;BME280;50264;52.088;5.296;2023-04-27T04:26:33;102101.0;;;0.37;90.5
64023;BME280;50264;52.088;5.296;2023-04-27T04:28:09;102102.0;;;0.22;90.48
64023;BME280;50264;52.088;5.296;2023-04-27T04:29:45;102100.0;;;0.23;90.86
64023;BME280;50264;52.088;5.296;2023-04-27T04:32:57;102103.0;;;0.23;91.17
64023;BME280;50264;52.088;5.296;2023-04-27T04:34:34;102109.0;;;0.36;91.59
64023;BME280;50264;52.088;5.296;2023-04-27T04:36:10;102101.0;;;0.48;91.11
64023;BME280;50264;52.088;5.296;2023-04-27T04:37:46;102108.0;;;0.5;91.04
64023;BME280;50264;52.088;5.296;2023-04-27T04:40:58;102112.0;;;0.59;90.79
64023;BME280;50264;52.088;5.296;2023-04-27T04:42:34;102115.0;;;0.5;90.72
64023;BME280;50264;52.088;5.296;2023-04-27T04:44:10;102118.0;;;0.53;90.92
64023;BME280;50264;52.088;5.296;2023-04-27T04:47:23;102125.0;;;0.54;91.09
64023;BME280;50264;52.088;5.296;2023-04-27T04:48:59;102121.0;;;0.57;91.74
64023;BME280;50264;52.088;5.296;2023-04-27T04:50:35;102123.0;;;0.61;91.48
64023;BME280;50264;52.088;5.296;2023-04-27T04:53:47;102120.0;;;0.58;91.91
64023;BME280;50264;52.088;5.296;2023-04-27T04:55:24;102117.0;;;0.59;91.39
64023;BME280;50264;52.088;5.296;2023-04-27T04:57:00;102121.0;;;0.62;91.28
64023;BME280;50264;52.088;5.296;2023-04-27T05:00:14;102122.0;;;0.7;91.43
64023;BME280;50264;52.088;5.296;2023-04-27T05:01:50;102120.0;;;0.85;91.19
64023;BME280;50264;52.088;5.296;2023-04-27T05:03:26;102121.0;;;0.89;90.53
64023;BME280;50264;52.088;5.296;2023-04-27T05:05:02;102116.0;;;0.84;91.0
64023;BME280;50264;52.088;5.296;2023-04-27T05:08:15;102112.0;;;0.93;91.24
64023;BME280;50264;52.088;5.296;2023-04-27T05:09:51;102113.0;;;1.1;90.78
64023;BME280;50264;52.088;5.296;2023-04-27T05:11:27;102112.0;;;1.1;90.39
64023;BME280;50264;52.088;5.296;2023-04-27T05:14:40;102112.0;;;1.01;90.87
64023;BME280;50264;52.088;5.296;2023-04-27T05:16:16;102113.0;;;1.04;91.13
64023;BME280;50264;52.088;5.296;2023-04-27T05:17:53;102110.0;;;1.11;90.95
64023;BME280;50264;52.088;5.296;2023-04-27T05:21:12;102107.0;;;1.16;90.84
64023;BME280;50264;52.088;5.296;2023-04-27T05:22:48;102113.0;;;1.16;91.05
64023;BME280;50264;52.088;5.296;2023-04-27T05:24:24;102110.0;;;1.2;91.2
64023;BME280;50264;52.088;5.296;2023-04-27T05:26:00;102112.0;;;1.3;90.71
64023;BME280;50264;52.088;5.296;2023-04-27T05:29:13;102114.0;;;1.27;91.16
64023;BME280;50264;52.088;5.296;2023-04-27T05:30:49;102112.0;;;1.28;91.41
64023;BME280;50264;52.088;5.296;2023-04-27T05:32:25;102111.0;;;1.36;91.83
64023;BME280;50264;52.088;5.296;2023-04-27T05:35:37;102115.0;;;1.41;91.81
64023;BME280;50264;52.088;5.296;2023-04-27T05:37:13;102118.0;;;1.52;91.66
64023;BME280;50264;52.088;5.296;2023-04-27T05:38:49;102124.0;;;1.45;91.49
64023;BME280;50264;52.088;5.296;2023-04-27T05:42:03;102123.0;;;1.48;92.22
64023;BME280;50264;52.088;5.296;2023-04-27T05:43:39;102119.0;;;1.56;92.56
64023;BME280;50264;52.088;5.296;2023-04-27T05:45:15;102118.0;;;1.68;92.76
64023;BME280;50264;52.088;5.296;2023-04-27T05:46:51;102116.0;;;1.75;92.69
64023;BME280;50264;52.088;5.296;2023-04-27T05:50:04;102118.0;;;1.82;92.41
64023;BME280;50264;52.088;5.296;2023-04-27T05:51:40;102118.0;;;1.8;91.81
64023;BME280;50264;52.088;5.296;2023-04-27T05:53:16;102119.0;;;1.81;91.91
64023;BME280;50264;52.088;5.296;2023-04-27T05:56:29;102120.0;;;1.9;92.3
64023;BME280;50264;52.088;5.296;2023-04-27T05:58:05;102121.0;;;1.98;92.26
64023;BME280;50264;52.088;5.296;2023-04-27T05:59:41;102123.0;;;2.06;92.16
64023;BME280;50264;52.088;5.296;2023-04-27T06:02:54;102117.0;;;2.11;91.99
64023;BME280;50264;52.088;5.296;2023-04-27T06:04:30;102121.0;;;2.17;91.57
64023;BME280;50264;52.088;5.296;2023-04-27T06:06:06;102114.0;;;2.27;92.03
64023;BME280;50264;52.088;5.296;2023-04-27T06:09:19;102116.0;;;2.34;92.28
64023;BME280;50264;52.088;5.296;2023-04-27T06:10:55;102118.0;;;2.46;92.56
64023;BME280;50264;52.088;5.296;2023-04-27T06:12:31;102114.0;;;2.58;92.21
64023;BME280;50264;52.088;5.296;2023-04-27T06:14:07;102117.0;;;2.7;92.35
64023;BME280;50264;52.088;5.296;2023-04-27T06:17:20;102119.0;;;2.71;92.15
64023;BME280;50264;52.088;5.296;2023-04-27T06:18:56;102116.0;;;2.77;92.36
64023;BME280;50264;52.088;5.296;2023-04-27T06:20:33;102115.0;;;2.81;91.72
64023;BME280;50264;52.088;5.296;2023-04-27T06:23:45;102114.0;;;2.98;91.89
64023;BME280;50264;52.088;5.296;2023-04-27T06:25:21;102114.0;;;3.03;92.01
64023;BME280;50264;52.088;5.296;2023-04-27T06:26:57;102113.0;;;3.3;90.34
64023;BME280;50264;52.088;5.296;2023-04-27T06:30:10;102113.0;;;3.4;90.78
64023;BME280;50264;52.088;5.296;2023-04-27T06:31:46;102113.0;;;3.57;90.53
64023;BME280;50264;52.088;5.296;2023-04-27T06:33:22;102119.0;;;3.77;88.9
64023;BME280;50264;52.088;5.296;2023-04-27T06:34:59;102116.0;;;4.03;87.64
64023;BME280;50264;52.088;5.296;2023-04-27T06:38:11;102119.0;;;4.24;86.61
64023;BME280;50264;52.088;5.296;2023-04-27T06:39:47;102120.0;;;4.41;82.65
64023;BME280;50264;52.088;5.296;2023-04-27T06:41:24;102116.0;;;4.74;81.39
64023;BME280;50264;52.088;5.296;2023-04-27T06:44:37;102116.0;;;4.8;83.12
64023;BME280;50264;52.088;5.296;2023-04-27T06:46:13;102121.0;;;5.13;80.92
64023;BME280;50264;52.088;5.296;2023-04-27T06:47:50;102117.0;;;5.36;79.09
64023;BME280;50264;52.088;5.296;2023-04-27T06:51:02;102117.0;;;5.45;80.83
64023;BME280;50264;52.088;5.296;2023-04-27T06:52:39;102119.0;;;5.63;80.11
64023;BME280;50264;52.088;5.296;2023-04-27T06:54:15;102116.0;;;5.84;77.72
64023;BME280;50264;52.088;5.296;2023-04-27T06:55:51;102111.0;;;6.02;75.34
64023;BME280;50264;52.088;5.296;2023-04-27T06:59:04;102115.0;;;6.2;75.73
64023;BME280;50264;52.088;5.296;2023-04-27T07:00:40;102112.0;;;6.21;78.28
64023;BME280;50264;52.088;5.296;2023-04-27T07:02:16;102112.0;;;6.44;75.08
64023;BME280;50264;52.088;5.296;2023-04-27T07:05:28;102110.0;;;6.58;74.09
64023;BME280;50264;52.088;5.296;2023-04-27T07:07:03;102111.0;;;6.65;70.47
64023;BME280;50264;52.088;5.296;2023-04-27T07:08:40;102111.0;;;6.78;69.61
64023;BME280;50264;52.088;5.296;2023-04-27T07:11:54;102110.0;;;7.01;71.06
64023;BME280;50264;52.088;5.296;2023-04-27T07:13:30;102109.0;;;7.11;72.56
64023;BME280;50264;52.088;5.296;2023-04-27T07:15:08;102119.0;;;7.19;71.49
64023;BME280;50264;52.088;5.296;2023-04-27T07:18:21;102124.0;;;7.26;68.92
64023;BME280;50264;52.088;5.296;2023-04-27T07:19:57;102122.0;;;7.31;70.13
64023;BME280;50264;52.088;5.296;2023-04-27T07:21:33;102130.0;;;7.55;68.06
64023;BME280;50264;52.088;5.296;2023-04-27T07:23:09;102124.0;;;7.59;68.78
64023;BME280;50264;52.088;5.296;2023-04-27T07:26:22;102126.0;;;7.64;70.63
64023;BME280;50264;52.088;5.296;2023-04-27T07:27:58;102123.0;;;7.87;68.62
64023;BME280;50264;52.088;5.296;2023-04-27T07:29:34;102122.0;;;7.95;65.53
64023;BME280;50264;52.088;5.296;2023-04-27T07:32:48;102123.0;;;7.9;64.12
64023;BME280;50264;52.088;5.296;2023-04-27T07:34:25;102112.0;;;7.96;62.78
64023;BME280;50264;52.088;5.296;2023-04-27T07:36:02;102110.0;;;8.13;61.98
64023;BME280;50264;52.088;5.296;2023-04-27T07:39:14;102107.0;;;8.22;57.42
64023;BME280;50264;52.088;5.296;2023-04-27T07:40:50;102105.0;;;8.4;59.54
64023;BME280;50264;52.088;5.296;2023-04-27T07:42:26;102105.0;;;8.31;55.52
64023;BME280;50264;52.088;5.296;2023-04-27T07:44:02;102101.0;;;8.41;55.88
64023;BME280;50264;52.088;5.296;2023-04-27T07:47:15;102099.0;;;8.48;56.29
64023;BME280;50264;52.088;5.296;2023-04-27T07:48:51;102098.0;;;8.48;56.92
64023;BME280;50264;52.088;5.296;2023-04-27T07:50:29;102107.0;;;8.48;54.29
64023;BME280;50264;52.088;5.296;2023-04-27T07:53:42;102108.0;;;8.56;55.24
64023;BME280;50264;52.088;5.296;2023-04-27T07:55:18;102105.0;;;8.57;54.59
64023;BME280;50264;52.088;5.296;2023-04-27T07:56:55;102108.0;;;8.61;54.09
64023;BME280;50264;52.088;5.296;2023-04-27T08:01:44;102115.0;;;8.65;52.6
64023;BME280;50264;52.088;5.296;2023-04-27T08:03:20;102108.0;;;8.74;53.95
64023;BME280;50264;52.088;5.296;2023-04-27T08:04:57;102117.0;;;8.93;52.56
64023;BME280;50264;52.088;5.296;2023-04-27T08:08:09;102114.0;;;8.98;51.12
64023;BME280;50264;52.088;5.296;2023-04-27T08:09:45;102117.0;;;8.99;51.01
64023;BME280;50264;52.088;5.296;2023-04-27T08:11:21;102113.0;;;9.13;51.19
64023;BME280;50264;52.088;5.296;2023-04-27T08:14:34;102116.0;;;9.1;51.19
64023;BME280;50264;52.088;5.296;2023-04-27T08:16:09;102115.0;;;9.26;51.38
64023;BME280;50264;52.088;5.296;2023-04-27T08:17:46;102120.0;;;9.18;50.88
64023;BME280;50264;52.088;5.296;2023-04-27T08:20:59;102111.0;;;9.24;52.84
64023;BME280;50264;52.088;5.296;2023-04-27T08:22:35;102113.0;;;9.31;51.65
64023;BME280;50264;52.088;5.296;2023-04-27T08:24:11;102112.0;;;9.48;51.46
64023;BME280;50264;52.088;5.296;2023-04-27T08:27:23;102120.0;;;9.61;53.5
64023;BME280;50264;52.088;5.296;2023-04-27T08:29:00;102113.0;;;9.78;52.45
64023;BME280;50264;52.088;5.296;2023-04-27T08:30:37;102112.0;;;9.77;54.05
64023;BME280;50264;52.088;5.296;2023-04-27T08:32:13;102110.0;;;9.93;50.25
64023;BME280;50264;52.088;5.296;2023-04-27T08:35:26;102103.0;;;9.82;52.52
64023;BME280;50264;52.088;5.296;2023-04-27T08:37:02;102102.0;;;9.92;49.47
64023;BME280;50264;52.088;5.296;2023-04-27T08:38:38;102102.0;;;10.08;49.75
64023;BME280;50264;52.088;5.296;2023-04-27T08:41:50;102103.0;;;10.18;50.46
64023;BME280;50264;52.088;5.296;2023-04-27T08:43:31;102103.0;;;10.14;49.0
64023;BME280;50264;52.088;5.296;2023-04-27T08:45:09;102103.0;;;10.14;49.23
64023;BME280;50264;52.088;5.296;2023-04-27T08:46:46;102107.0;;;10.19;47.76
64023;BME280;50264;52.088;5.296;2023-04-27T08:49:58;102100.0;;;10.32;48.41
64023;BME280;50264;52.088;5.296;2023-04-27T08:51:34;102094.0;;;10.44;50.29
64023;BME280;50264;52.088;5.296;2023-04-27T08:53:18;102093.0;;;10.52;50.85
64023;BME280;50264;52.088;5.296;2023-04-27T08:58:07;102093.0;;;10.65;48.24
64023;BME280;50264;52.088;5.296;2023-04-27T08:59:43;102092.0;;;10.66;47.54
64023;BME280;50264;52.088;5.296;2023-04-27T09:02:57;102095.0;;;10.73;47.91
64023;BME280;50264;52.088;5.296;2023-04-27T09:04:37;102096.0;;;10.94;51.19
64023;BME280;50264;52.088;5.296;2023-04-27T09:06:14;102094.0;;;11.05;48.53
64023;BME280;50264;52.088;5.296;2023-04-27T09:07:58;102089.0;;;11.29;49.71
64023;BME280;50264;52.088;5.296;2023-04-27T09:11:12;102096.0;;;11.32;48.86
64023;BME280;50264;52.088;5.296;2023-04-27T09:12:57;102099.0;;;11.26;47.64
64023;BME280;50264;52.088;5.296;2023-04-27T09:14:34;102099.0;;;11.42;47.51
64023;BME280;50264;52.088;5.296;2023-04-27T09:16:11;102088.0;;;11.4;48.64
64023;BME280;50264;52.088;5.296;2023-04-27T09:19:29;102092.0;;;11.5;46.98
64023;BME280;50264;52.088;5.296;2023-04-27T09:21:05;102084.0;;;11.6;46.75
64023;BME280;50264;52.088;5.296;2023-04-27T09:22:42;102086.0;;;11.53;45.47
64023;BME280;50264;52.088;5.296;2023-04-27T09:25:55;102083.0;;;11.67;45.17
64023;BME280;50264;52.088;5.296;2023-04-27T09:27:32;102080.0;;;11.87;46.45
64023;BME280;50264;52.088;5.296;2023-04-27T09:29:08;102086.0;;;12.03;49.83
64023;BME280;50264;52.088;5.296;2023-04-27T09:30:51;102084.0;;;11.89;46.61
64023;BME280;50264;52.088;5.296;2023-04-27T09:34:03;102078.0;;;12.0;45.75
64023;BME280;50264;52.088;5.296;2023-04-27T09:35:40;102080.0;;;12.06;47.48
64023;BME280;50264;52.088;5.296;2023-04-27T09:37:17;102080.0;;;12.08;43.73
64023;BME280;50264;52.088;5.296;2023-04-27T09:40:31;102080.0;;;12.2;46.3
64023;BME280;50264;52.088;5.296;2023-04-27T09:42:07;102078.0;;;11.99;42.31
64023;BME280;50264;52.088;5.296;2023-04-27T09:43:44;102072.0;;;11.99;44.14
64023;BME280;50264;52.088;5.296;2023-04-27T09:45:22;102069.0;;;12.27;47.67
64023;BME280;50264;52.088;5.296;2023-04-27T09:48:37;102068.0;;;12.35;46.75
64023;BME280;50264;52.088;5.296;2023-04-27T09:50:14;102075.0;;;12.13;44.51
64023;BME280;50264;52.088;5.296;2023-04-27T09:51:51;102076.0;;;12.1;44.53
64023;BME280;50264;52.088;5.296;2023-04-27T09:55:15;102064.0;;;12.42;48.03
64023;BME280;50264;52.088;5.296;2023-04-27T09:56:59;102061.0;;;12.61;49.82
64023;BME280;50264;52.088;5.296;2023-04-27T09:58:54;102053.0;;;12.69;45.26
64023;BME280;50264;52.088;5.296;2023-04-27T10:00:50;102051.0;;;12.57;42.18
64023;BME280;50264;52.088;5.296;2023-04-27T10:04:36;102066.0;;;12.59;42.33
64023;BME280;50264;52.088;5.296;2023-04-27T10:06:45;102064.0;;;12.64;43.22
64023;BME280;50264;52.088;5.296;2023-04-27T10:08:56;102060.0;;;12.69;44.69
64023;BME280;50264;52.088;5.296;2023-04-27T10:10:41;102061.0;;;12.75;42.31
64023;BME280;50264;52.088;5.296;2023-04-27T10:14:05;102062.0;;;12.9;42.91
64023;BME280;50264;52.088;5.296;2023-04-27T10:15:41;102063.0;;;13.04;44.03
64023;BME280;50264;52.088;5.296;2023-04-27T10:17:18;102062.0;;;13.21;45.58
64023;BME280;50264;52.088;5.296;2023-04-27T10:19:08;102058.0;;;13.25;44.38
64023;BME280;50264;52.088;5.296;2023-04-27T10:22:21;102053.0;;;13.38;43.84
64023;BME280;50264;52.088;5.296;2023-04-27T10:24:06;102061.0;;;13.2;41.91
64023;BME280;50264;52.088;5.296;2023-04-27T10:25:45;102061.0;;;13.38;40.35
64023;BME280;50264;52.088;5.296;2023-04-27T10:27:21;102057.0;;;13.44;42.8
64023;BME280;50264;52.088;5.296;2023-04-27T10:30:43;102057.0;;;13.45;41.82
64023;BME280;50264;52.088;5.296;2023-04-27T10:32:23;102053.0;;;13.47;41.5
64023;BME280;50264;52.088;5.296;2023-04-27T10:34:08;102055.0;;;13.56;40.31
64023;BME280;50264;52.088;5.296;2023-04-27T10:35:53;102057.0;;;13.6;40.5
64023;BME280;50264;52.088;5.296;2023-04-27T10:39:15;102057.0;;;13.36;41.48
64023;BME280;50264;52.088;5.296;2023-04-27T10:40:54;102053.0;;;13.34;40.64
64023;BME280;50264;52.088;5.296;2023-04-27T10:42:30;102051.0;;;13.47;44.32
64023;BME280;50264;52.088;5.296;2023-04-27T10:44:15;102056.0;;;13.81;43.94
64023;BME280;50264;52.088;5.296;2023-04-27T10:47:37;102052.0;;;13.81;40.72
64023;BME280;50264;52.088;5.296;2023-04-27T10:49:15;102051.0;;;13.68;39.04
64023;BME280;50264;52.088;5.296;2023-04-27T10:50:51;102055.0;;;13.77;40.97
64023;BME280;50264;52.088;5.296;2023-04-27T10:52:27;102056.0;;;13.59;37.96
64023;BME280;50264;52.088;5.296;2023-04-27T10:55:39;102046.0;;;13.59;39.17
64023;BME280;50264;52.088;5.296;2023-04-27T10:57:15;102045.0;;;13.55;38.9
64023;BME280;50264;52.088;5.296;2023-04-27T10:58:52;102043.0;;;13.99;42.84
64023;BME280;50264;52.088;5.296;2023-04-27T11:02:06;102043.0;;;14.22;39.69
64023;BME280;50264;52.088;5.296;2023-04-27T11:03:42;102044.0;;;14.36;42.83
64023;BME280;50264;52.088;5.296;2023-04-27T11:05:19;102040.0;;;14.68;43.92
64023;BME280;50264;52.088;5.296;2023-04-27T11:06:56;102039.0;;;14.23;37.69
64023;BME280;50264;52.088;5.296;2023-04-27T11:10:19;102027.0;;;14.45;42.59
64023;BME280;50264;52.088;5.296;2023-04-27T11:11:55;102030.0;;;14.81;41.57
64023;BME280;50264;52.088;5.296;2023-04-27T11:13:32;102021.0;;;14.74;38.78
64023;BME280;50264;52.088;5.296;2023-04-27T11:16:45;102018.0;;;15.04;39.46
64023;BME280;50264;52.088;5.296;2023-04-27T11:18:23;102022.0;;;15.27;40.89
64023;BME280;50264;52.088;5.296;2023-04-27T11:20:01;102016.0;;;14.9;35.64